Time;durP1;ratioP1;P1;durP2;ratioP2;P2;SDS_P1;SDS_P2;PMS_P1;PMS_P2;Temp;Humidity;BMP_temperature;BMP_pressure;BME280_temperature;BME280_humidity;BME280_pressure;Samples;Min_cycle;Max_cycle;Signal;HPM_P1;HPM_P2
2023/09/10 00:02:05;;;;;;;11.15;7.80;;;19.90;67.60;;;;;;5076607;28;20024;-68
2023/09/10 00:04:32;;;;;;;9.30;6.90;;;20.00;67.30;;;;;;5076798;28;20031;-68
2023/09/10 00:06:58;;;;;;;9.88;6.97;;;20.00;67.00;;;;;;5076365;28;20025;-68
2023/09/10 00:09:24;;;;;;;11.88;7.18;;;20.00;66.70;;;;;;5076189;28;20060;-68
2023/09/10 00:11:51;;;;;;;9.50;7.00;;;20.00;66.70;;;;;;5076705;28;20047;-68
2023/09/10 00:14:17;;;;;;;8.45;6.68;;;20.00;66.80;;;;;;5076309;28;20423;-68
2023/09/10 00:16:43;;;;;;;10.70;6.45;;;20.00;66.70;;;;;;5076479;28;20071;-68
2023/09/10 00:19:11;;;;;;;8.90;6.22;;;20.00;66.50;;;;;;5076516;28;20070;-68
2023/09/10 00:21:37;;;;;;;7.57;5.78;;;20.00;66.40;;;;;;5076198;28;20017;-68
2023/09/10 00:24:03;;;;;;;9.40;6.80;;;20.00;66.50;;;;;;5076438;28;20349;-68
2023/09/10 00:26:29;;;;;;;10.02;5.90;;;20.00;66.60;;;;;;5075730;28;20024;-68
2023/09/10 00:28:55;;;;;;;7.85;5.90;;;19.90;66.70;;;;;;5075931;28;20414;-68
2023/09/10 00:31:21;;;;;;;8.05;5.95;;;19.90;66.70;;;;;;5076046;28;20067;-68
2023/09/10 00:33:47;;;;;;;7.43;5.55;;;19.90;66.70;;;;;;5076398;28;20028;-68
2023/09/10 00:36:13;;;;;;;10.07;6.68;;;19.90;66.80;;;;;;5076506;28;20142;-68
2023/09/10 00:38:39;;;;;;;9.63;6.65;;;19.80;67.00;;;;;;5075819;28;20116;-68
2023/09/10 00:41:06;;;;;;;8.20;5.93;;;19.80;67.00;;;;;;5076406;28;20016;-68
2023/09/10 00:43:32;;;;;;;9.13;6.90;;;19.70;67.10;;;;;;5058249;28;20024;-68
2023/09/10 00:45:58;;;;;;;8.30;6.20;;;19.70;67.00;;;;;;5058690;28;20438;-68
2023/09/10 00:48:25;;;;;;;9.57;6.25;;;19.70;67.20;;;;;;5075694;28;20154;-68
2023/09/10 00:50:51;;;;;;;11.25;7.10;;;19.60;67.30;;;;;;5075720;28;20358;-68
2023/09/10 00:53:19;;;;;;;10.50;7.40;;;19.70;67.30;;;;;;5075873;28;20035;-68
2023/09/10 00:55:46;;;;;;;9.50;6.30;;;19.60;67.40;;;;;;5076160;28;20021;-68
2023/09/10 00:58:12;;;;;;;8.30;5.97;;;19.60;67.50;;;;;;5058409;28;20017;-68
2023/09/10 01:00:43;;;;;;;8.07;5.88;;;19.50;67.50;;;;;;5075504;28;20016;-68
2023/09/10 01:03:09;;;;;;;8.90;6.43;;;19.60;67.50;;;;;;5075720;28;20021;-68
2023/09/10 01:05:51;;;;;;;8.65;6.40;;;19.60;67.70;;;;;;5075477;28;20048;-68
2023/09/10 01:08:17;;;;;;;10.35;6.68;;;19.50;67.70;;;;;;5074887;28;20056;-68
2023/09/10 01:10:53;;;;;;;8.77;6.03;;;19.50;67.70;;;;;;5075659;28;20016;-68
2023/09/10 01:13:33;;;;;;;9.48;6.30;;;19.50;67.70;;;;;;5075585;28;20032;-68
2023/09/10 01:16:11;;;;;;;8.27;6.28;;;19.50;67.70;;;;;;5075673;28;20442;-68
2023/09/10 01:18:49;;;;;;;8.25;5.97;;;19.50;67.50;;;;;;5075328;28;20099;-68
2023/09/10 01:21:30;;;;;;;7.57;6.00;;;19.60;67.40;;;;;;5075831;28;20028;-68
2023/09/10 01:24:12;;;;;;;8.90;6.43;;;19.60;67.40;;;;;;5075470;28;20032;-68
2023/09/10 01:26:40;;;;;;;8.93;6.10;;;19.60;67.30;;;;;;5057471;28;20115;-68
2023/09/10 01:29:13;;;;;;;7.68;6.25;;;19.60;67.30;;;;;;5075461;28;20033;-68
2023/09/10 01:31:44;;;;;;;10.10;6.53;;;19.60;67.40;;;;;;5075739;28;20308;-68
2023/09/10 01:34:14;;;;;;;10.70;6.85;;;19.60;67.30;;;;;;5075430;28;20032;-68
2023/09/10 01:36:45;;;;;;;8.93;6.15;;;19.50;67.20;;;;;;5075694;28;20016;-68
2023/09/10 01:39:48;;;;;;;9.60;6.15;;;19.60;67.20;;;;;;5080616;28;20131;-68
2023/09/10 01:42:15;;;;;;;7.95;5.97;;;19.50;67.20;;;;;;5082349;28;20343;-68
2023/09/10 01:44:42;;;;;;;10.02;7.05;;;19.40;67.40;;;;;;5081760;28;20443;-68
2023/09/10 01:47:08;;;;;;;8.15;6.10;;;19.50;67.60;;;;;;5081897;28;20111;-68
2023/09/10 01:49:34;;;;;;;8.40;6.00;;;19.40;67.60;;;;;;5064480;28;20435;-67
2023/09/10 01:52:02;;;;;;;8.48;6.20;;;19.40;67.60;;;;;;5081683;28;20028;-67
2023/09/10 01:54:28;;;;;;;8.27;6.07;;;19.40;67.60;;;;;;5082140;28;20086;-69
2023/09/10 01:56:54;;;;;;;9.85;7.00;;;19.40;67.70;;;;;;5081592;28;20020;-68
2023/09/10 01:59:20;;;;;;;8.15;5.95;;;19.30;67.80;;;;;;5081876;28;20050;-68
2023/09/10 02:01:47;;;;;;;8.57;6.07;;;19.30;67.90;;;;;;5064612;28;20021;-68
2023/09/10 02:04:13;;;;;;;8.57;6.40;;;19.20;68.10;;;;;;5082086;28;20033;-68
2023/09/10 02:06:43;;;;;;;9.05;6.75;;;19.20;68.10;;;;;;5063941;28;20100;-68
2023/09/10 02:09:09;;;;;;;10.80;6.13;;;19.20;68.10;;;;;;5080264;28;20390;-68
2023/09/10 02:11:35;;;;;;;10.50;6.82;;;19.20;68.20;;;;;;5081699;28;20039;-68
2023/09/10 02:14:01;;;;;;;9.40;6.50;;;19.20;68.50;;;;;;5081930;28;20464;-68
2023/09/10 02:16:28;;;;;;;11.93;7.10;;;19.20;68.50;;;;;;5081441;28;20027;-68
2023/09/10 02:18:54;;;;;;;9.20;6.35;;;19.10;68.30;;;;;;5081379;28;20076;-68
2023/09/10 02:21:20;;;;;;;8.90;6.35;;;19.10;68.30;;;;;;5081411;28;20020;-68
2023/09/10 02:23:46;;;;;;;8.60;6.47;;;19.10;68.40;;;;;;5081943;28;20393;-68
2023/09/10 02:26:12;;;;;;;10.13;6.75;;;19.20;68.30;;;;;;5081344;28;20021;-68
2023/09/10 02:28:39;;;;;;;10.55;6.15;;;19.10;68.50;;;;;;5081286;28;20442;-68
2023/09/10 02:31:06;;;;;;;9.32;6.65;;;19.10;68.40;;;;;;5081891;28;20078;-68
2023/09/10 02:33:34;;;;;;;9.40;6.78;;;19.10;68.40;;;;;;5081266;28;20039;-68
2023/09/10 02:36:00;;;;;;;13.35;7.28;;;19.00;68.40;;;;;;5081889;28;20086;-68
2023/09/10 02:38:27;;;;;;;9.52;6.68;;;19.00;68.50;;;;;;5081330;28;20028;-68
2023/09/10 02:40:55;;;;;;;9.02;6.63;;;19.00;68.60;;;;;;5081219;28;20021;-68
2023/09/10 02:43:22;;;;;;;8.95;6.32;;;19.00;68.60;;;;;;5081228;28;20036;-68
2023/09/10 02:45:48;;;;;;;9.88;6.15;;;19.00;68.50;;;;;;5081234;28;20095;-68
2023/09/10 02:48:14;;;;;;;9.32;6.05;;;19.10;68.40;;;;;;5081221;28;20024;-68
2023/09/10 02:50:40;;;;;;;9.10;6.38;;;19.10;68.40;;;;;;5077526;28;20439;-68
2023/09/10 02:53:06;;;;;;;9.07;6.57;;;19.20;68.30;;;;;;5060554;28;20036;-68
2023/09/10 02:55:32;;;;;;;8.70;6.80;;;19.20;68.40;;;;;;5077800;28;20040;-68
2023/09/10 02:57:59;;;;;;;7.93;6.07;;;19.20;68.50;;;;;;5077876;28;20036;-68
2023/09/10 03:00:25;;;;;;;7.78;5.55;;;19.20;68.30;;;;;;5078386;28;20028;-68
2023/09/10 03:02:55;;;;;;;8.45;5.95;;;19.20;68.10;;;;;;5077784;28;20026;-68
2023/09/10 03:05:24;;;;;;;8.55;6.00;;;19.10;68.20;;;;;;5060717;28;20024;-68
2023/09/10 03:07:51;;;;;;;9.13;6.63;;;19.10;68.20;;;;;;5077395;28;20052;-68
2023/09/10 03:10:18;;;;;;;8.40;6.15;;;19.10;68.60;;;;;;5077986;28;20116;-68
2023/09/10 03:12:43;;;;;;;7.75;5.75;;;19.00;68.90;;;;;;5078204;28;20077;-68
2023/09/10 03:15:10;;;;;;;9.25;6.38;;;19.00;68.60;;;;;;5078030;28;20055;-68
2023/09/10 03:17:36;;;;;;;11.18;6.03;;;19.00;68.60;;;;;;5077715;28;20051;-68
2023/09/10 03:20:04;;;;;;;10.00;6.57;;;18.90;68.80;;;;;;5077517;28;20451;-68
2023/09/10 03:22:30;;;;;;;9.35;5.80;;;18.90;68.90;;;;;;5060299;28;20035;-68
2023/09/10 03:24:57;;;;;;;8.18;6.00;;;18.90;69.00;;;;;;5077935;28;20020;-68
2023/09/10 03:27:23;;;;;;;9.10;6.13;;;18.80;69.00;;;;;;5077829;28;20032;-68
2023/09/10 03:29:49;;;;;;;8.75;6.65;;;18.80;69.30;;;;;;5077309;28;20350;-68
2023/09/10 03:32:15;;;;;;;8.63;6.43;;;18.80;69.30;;;;;;5077245;28;20107;-68
2023/09/10 03:34:42;;;;;;;9.35;6.22;;;18.80;69.50;;;;;;5077405;28;20020;-68
2023/09/10 03:37:08;;;;;;;8.50;6.50;;;18.70;69.40;;;;;;5077047;28;20035;-68
2023/09/10 03:39:34;;;;;;;10.73;7.20;;;18.70;69.50;;;;;;5077168;28;20021;-68
2023/09/10 03:42:03;;;;;;;9.10;6.78;;;18.70;69.50;;;;;;5077307;28;20032;-68
2023/09/10 03:44:29;;;;;;;10.25;6.53;;;18.70;69.50;;;;;;5077049;28;20038;-68
2023/09/10 03:49:29;;;;;;;7.80;5.90;;;18.70;69.60;;;;;;5077702;28;20403;-68
2023/09/10 03:51:57;;;;;;;10.88;7.18;;;18.60;69.80;;;;;;5076838;28;20035;-68
2023/09/10 03:54:23;;;;;;;8.55;6.30;;;18.60;69.70;;;;;;5077734;28;20342;-68
2023/09/10 03:56:49;;;;;;;8.52;6.30;;;18.60;69.80;;;;;;5076709;28;20017;-68
2023/09/10 03:59:15;;;;;;;8.85;6.20;;;18.60;69.90;;;;;;5077242;28;20024;-68
2023/09/10 04:01:41;;;;;;;8.88;6.28;;;18.60;69.90;;;;;;5076487;28;20451;-68
2023/09/10 04:04:07;;;;;;;8.18;5.80;;;18.60;69.80;;;;;;5076862;28;20025;-68
2023/09/10 04:06:33;;;;;;;8.45;6.43;;;18.60;70.00;;;;;;5058932;28;20029;-68
2023/09/10 04:09:03;;;;;;;9.65;6.40;;;18.50;70.10;;;;;;5076176;28;20040;-68
2023/09/10 04:11:29;;;;;;;9.30;6.43;;;18.60;70.10;;;;;;5076440;28;20332;-68
2023/09/10 04:13:55;;;;;;;8.52;6.07;;;18.50;70.30;;;;;;5076339;28;20086;-68
2023/09/10 04:16:21;;;;;;;8.50;6.35;;;18.50;70.10;;;;;;5058715;28;20123;-68
2023/09/10 04:18:46;;;;;;;9.38;6.80;;;18.50;70.30;;;;;;5076286;28;20017;-68
2023/09/10 04:21:13;;;;;;;9.30;7.05;;;18.40;70.40;;;;;;5076251;28;20510;-68
2023/09/10 04:23:38;;;;;;;11.13;7.50;;;18.40;70.40;;;;;;5076235;28;20024;-68
2023/09/10 04:26:04;;;;;;;10.82;7.80;;;18.40;70.40;;;;;;5076183;28;20036;-68
2023/09/10 04:28:30;;;;;;;8.02;6.20;;;18.40;70.80;;;;;;5076085;28;20025;-68
2023/09/10 04:30:59;;;;;;;10.02;6.75;;;18.40;70.80;;;;;;5076366;28;20035;-67
2023/09/10 04:33:25;;;;;;;9.13;6.75;;;18.40;70.80;;;;;;5076533;28;20024;-68
2023/09/10 04:35:58;;;;;;;9.45;6.90;;;18.40;70.80;;;;;;5076009;28;20025;-68
2023/09/10 04:38:24;;;;;;;9.95;6.95;;;18.40;70.60;;;;;;5075951;28;20104;-68
2023/09/10 04:40:51;;;;;;;11.82;7.72;;;18.40;70.50;;;;;;5076649;28;20032;-68
2023/09/10 04:43:17;;;;;;;9.00;6.80;;;18.40;70.90;;;;;;5076425;28;20430;-68
2023/09/10 04:45:46;;;;;;;10.85;7.68;;;18.40;70.80;;;;;;5075778;28;20052;-68
2023/09/10 04:48:13;;;;;;;9.05;6.90;;;18.50;70.70;;;;;;5075766;28;20032;-68
2023/09/10 04:50:40;;;;;;;10.50;7.70;;;18.60;70.60;;;;;;5075972;28;20013;-68
2023/09/10 04:53:06;;;;;;;13.02;8.80;;;18.60;70.50;;;;;;5075747;28;20028;-68
2023/09/10 04:55:32;;;;;;;10.23;8.30;;;18.70;70.40;;;;;;5075826;28;20028;-68
2023/09/10 04:57:58;;;;;;;10.02;8.35;;;18.80;70.50;;;;;;5076108;28;20431;-68
2023/09/10 05:00:24;;;;;;;11.50;9.07;;;18.80;70.30;;;;;;5075608;28;20020;-68
2023/09/10 05:02:50;;;;;;;11.32;8.38;;;19.00;70.30;;;;;;5075833;28;20032;-68
2023/09/10 05:05:16;;;;;;;11.63;9.38;;;19.30;69.80;;;;;;5075538;28;20446;-68
2023/09/10 05:07:42;;;;;;;12.82;10.10;;;19.80;69.10;;;;;;5075334;28;20070;-68
2023/09/10 05:10:10;;;;;;;13.77;10.20;;;20.40;68.10;;;;;;5076057;28;20024;-68
2023/09/10 05:12:36;;;;;;;12.98;9.98;;;20.90;66.60;;;;;;5075471;28;20411;-68
2023/09/10 05:15:02;;;;;;;12.00;9.10;;;21.50;65.40;;;;;;5075895;28;20027;-68
2023/09/10 05:17:28;;;;;;;11.93;8.90;;;22.20;64.20;;;;;;5075331;28;20113;-68
2023/09/10 05:19:54;;;;;;;10.95;8.65;;;22.90;62.80;;;;;;5075393;28;20048;-68
2023/09/10 05:22:20;;;;;;;10.15;8.10;;;23.70;61.30;;;;;;5075354;28;20032;-68
2023/09/10 05:24:45;;;;;;;10.50;7.72;;;24.40;59.80;;;;;;5075564;28;20029;-68
2023/09/10 05:27:11;;;;;;;10.35;8.10;;;25.20;57.90;;;;;;5075229;28;20090;-68
2023/09/10 05:29:37;;;;;;;8.55;6.90;;;26.00;56.50;;;;;;5075807;28;20435;-68
2023/09/10 05:32:03;;;;;;;10.27;7.60;;;26.80;54.90;;;;;;5075498;28;20350;-68
2023/09/10 05:34:35;;;;;;;9.20;6.70;;;27.60;53.30;;;;;;5075662;28;20031;-68
2023/09/10 05:37:04;;;;;;;8.40;6.45;;;28.40;51.70;;;;;;5075128;28;20029;-68
2023/09/10 05:39:33;;;;;;;12.50;6.40;;;29.20;50.70;;;;;;5075200;28;20025;-68
2023/09/10 05:41:59;;;;;;;7.57;6.30;;;29.90;49.50;;;;;;5075609;28;20442;-68
2023/09/10 05:44:24;;;;;;;8.82;6.47;;;30.60;48.50;;;;;;5075642;28;20107;-69
2023/09/10 05:46:51;;;;;;;8.15;6.28;;;31.30;47.30;;;;;;5075035;28;20103;-68
2023/09/10 05:49:19;;;;;;;8.13;6.20;;;32.10;46.10;;;;;;5057388;28;20362;-68
2023/09/10 05:54:10;;;;;;;7.47;6.10;;;33.50;43.80;;;;;;5075761;28;20120;-69
2023/09/10 05:56:36;;;;;;;8.98;6.03;;;34.10;42.70;;;;;;5074890;28;20362;-69
2023/09/10 05:59:02;;;;;;;7.00;5.90;;;34.70;41.70;;;;;;5075533;28;20029;-69
2023/09/10 06:01:28;;;;;;;9.02;6.90;;;35.30;40.80;;;;;;5075218;28;20017;-69
2023/09/10 06:03:54;;;;;;;7.43;5.90;;;35.90;39.90;;;;;;5074950;28;20036;-69
2023/09/10 06:06:20;;;;;;;7.18;5.68;;;36.60;38.90;;;;;;5075469;28;20025;-69
2023/09/10 06:08:46;;;;;;;8.80;6.00;;;37.20;38.00;;;;;;5074645;28;20379;-69
2023/09/10 06:11:12;;;;;;;7.25;6.15;;;37.80;37.10;;;;;;5074891;28;20036;-69
2023/09/10 06:13:38;;;;;;;6.45;5.78;;;38.50;36.60;;;;;;5057230;28;20024;-69
2023/09/10 06:16:04;;;;;;;10.07;5.82;;;39.20;36.00;;;;;;5074866;28;20090;-69
2023/09/10 06:18:30;;;;;;;7.93;5.80;;;39.80;35.30;;;;;;5057089;28;20460;-69
2023/09/10 06:20:56;;;;;;;6.88;5.40;;;40.40;34.50;;;;;;5057127;28;20028;-69
2023/09/10 06:23:22;;;;;;;8.13;5.38;;;41.10;33.80;;;;;;5074788;28;20031;-69
2023/09/10 06:25:47;;;;;;;6.35;5.55;;;41.60;33.10;;;;;;5076919;28;20056;-69
2023/09/10 06:28:27;;;;;;;6.25;5.50;;;42.20;32.40;;;;;;5060978;28;20032;-70
2023/09/10 06:30:54;;;;;;;7.30;5.40;;;42.80;31.50;;;;;;5079054;28;20028;-69
2023/09/10 06:33:21;;;;;;;6.57;5.28;;;43.30;31.10;;;;;;5078917;28;20024;-69
2023/09/10 06:35:47;;;;;;;6.28;5.30;;;43.80;30.60;;;;;;5078330;28;20492;-69
2023/09/10 06:38:13;;;;;;;7.68;5.47;;;44.20;29.90;;;;;;5078408;28;20028;-69
2023/09/10 06:40:39;;;;;;;6.57;5.68;;;44.60;29.70;;;;;;5078750;28;20400;-69
2023/09/10 06:43:06;;;;;;;7.85;5.95;;;44.90;29.10;;;;;;5078495;28;20366;-70
2023/09/10 06:45:32;;;;;;;10.07;5.53;;;45.20;28.90;;;;;;5078705;28;20012;-69
2023/09/10 06:47:58;;;;;;;7.25;5.80;;;45.60;28.60;;;;;;5078099;28;20036;-69
2023/09/10 06:50:24;;;;;;;9.13;5.85;;;45.90;28.20;;;;;;5061208;28;20016;-69
2023/09/10 06:52:50;;;;;;;7.30;5.53;;;46.10;27.80;;;;;;5078035;28;20382;-69
2023/09/10 06:55:16;;;;;;;6.72;5.63;;;46.30;27.80;;;;;;5060234;28;20028;-69
2023/09/10 06:57:42;;;;;;;7.30;5.75;;;46.50;27.40;;;;;;5078193;28;20021;-69
2023/09/10 07:00:09;;;;;;;6.43;5.72;;;46.70;27.10;;;;;;5078477;28;20082;-69
2023/09/10 07:02:35;;;;;;;7.38;5.43;;;46.90;26.90;;;;;;5077823;28;20028;-69
2023/09/10 07:05:02;;;;;;;7.82;5.68;;;47.00;26.90;;;;;;5060104;28;20464;-70
2023/09/10 07:07:27;;;;;;;9.18;5.95;;;47.10;26.40;;;;;;5078219;28;20085;-70
2023/09/10 07:09:53;;;;;;;7.95;5.72;;;47.10;26.30;;;;;;5078253;28;20439;-69
2023/09/10 07:12:21;;;;;;;8.77;5.70;;;47.00;25.60;;;;;;5077495;28;20466;-70
2023/09/10 07:14:49;;;;;;;5.88;4.97;;;46.90;25.70;;;;;;5059865;28;20031;-69
2023/09/10 07:17:15;;;;;;;8.90;5.50;;;46.80;25.90;;;;;;5077678;28;20047;-70
2023/09/10 07:19:41;;;;;;;7.45;5.57;;;46.80;26.10;;;;;;5044166;28;20036;-68
2023/09/10 07:22:07;;;;;;;7.90;5.38;;;46.70;25.80;;;;;;5078033;28;20036;-67
2023/09/10 07:24:33;;;;;;;6.40;5.38;;;46.70;25.80;;;;;;5077406;28;20025;-70
2023/09/10 07:27:01;;;;;;;7.57;5.90;;;46.50;25.40;;;;;;5077864;28;20035;-70
2023/09/10 07:29:27;;;;;;;7.35;5.80;;;46.10;24.70;;;;;;5077579;28;20024;-70
2023/09/10 07:31:54;;;;;;;7.47;5.60;;;45.70;24.90;;;;;;5077293;28;20036;-68
2023/09/10 07:34:21;;;;;;;6.35;5.70;;;45.30;25.40;;;;;;5077726;28;20032;-70
2023/09/10 07:36:47;;;;;;;6.22;5.40;;;44.20;26.20;;;;;;5077165;28;20454;-69
2023/09/10 07:39:14;;;;;;;6.20;5.60;;;42.70;27.40;;;;;;5077137;28;20034;-69
2023/09/10 07:41:40;;;;;;;6.45;5.40;;;41.20;28.80;;;;;;5077111;28;20495;-70
2023/09/10 07:44:06;;;;;;;6.70;5.50;;;40.00;30.20;;;;;;5077055;28;20107;-69
2023/09/10 07:46:33;;;;;;;7.68;5.28;;;38.90;31.30;;;;;;5076986;28;20024;-69
2023/09/10 07:48:59;;;;;;;7.22;5.82;;;38.00;32.30;;;;;;5076802;28;20020;-69
2023/09/10 07:51:25;;;;;;;9.80;5.57;;;37.30;33.30;;;;;;5077515;28;20055;-69
2023/09/10 07:53:51;;;;;;;7.57;6.07;;;36.70;34.10;;;;;;5077069;28;20020;-69
2023/09/10 07:56:17;;;;;;;8.20;6.05;;;36.10;34.70;;;;;;5076831;28;20020;-69
2023/09/10 07:58:43;;;;;;;8.88;6.00;;;35.50;35.10;;;;;;5076908;28;20017;-69
2023/09/10 08:01:09;;;;;;;7.82;5.60;;;35.10;35.80;;;;;;5059075;28;20029;-69
2023/09/10 08:03:36;;;;;;;9.60;6.35;;;34.90;36.50;;;;;;5076699;28;20039;-69
2023/09/10 08:06:03;;;;;;;7.28;5.97;;;34.70;36.60;;;;;;5076898;28;20031;-69
2023/09/10 08:08:29;;;;;;;8.23;6.03;;;34.50;36.90;;;;;;5076289;28;20382;-69
2023/09/10 08:10:55;;;;;;;10.02;6.03;;;34.30;37.10;;;;;;5076759;28;20025;-69
2023/09/10 08:13:21;;;;;;;6.88;5.65;;;34.30;37.20;;;;;;5076754;28;20017;-69
2023/09/10 08:15:48;;;;;;;7.70;5.82;;;34.20;37.40;;;;;;5076355;28;20105;-69
2023/09/10 08:18:14;;;;;;;8.65;5.93;;;34.30;37.40;;;;;;5076230;28;20342;-69
2023/09/10 08:20:42;;;;;;;8.77;6.10;;;34.30;37.00;;;;;;5076885;28;20031;-69
2023/09/10 08:23:09;;;;;;;8.40;5.55;;;34.20;36.90;;;;;;5058844;28;20021;-69
2023/09/10 08:25:35;;;;;;;7.05;5.60;;;34.20;37.00;;;;;;5076509;28;20044;-69
2023/09/10 08:28:02;;;;;;;7.35;5.60;;;34.20;36.90;;;;;;5076237;28;20100;-69
2023/09/10 08:30:28;;;;;;;7.10;5.50;;;34.10;35.90;;;;;;5058522;28;20481;-69
2023/09/10 08:32:54;;;;;;;7.22;5.65;;;34.10;35.60;;;;;;5076144;28;20024;-69
2023/09/10 08:35:21;;;;;;;6.45;5.30;;;34.00;35.70;;;;;;5076520;28;20078;-69
2023/09/10 08:37:47;;;;;;;5.90;5.30;;;34.00;35.70;;;;;;5075863;28;20062;-69
2023/09/10 08:40:16;;;;;;;6.13;5.18;;;33.90;35.50;;;;;;5076001;28;20035;-69
2023/09/10 08:42:45;;;;;;;7.50;5.57;;;33.90;35.70;;;;;;5058273;28;20103;-69
2023/09/10 08:45:12;;;;;;;8.18;5.60;;;33.90;35.60;;;;;;5075875;28;20036;-69
2023/09/10 08:47:40;;;;;;;6.88;5.65;;;33.80;35.60;;;;;;5075490;28;20056;-69
2023/09/10 08:50:11;;;;;;;7.00;5.55;;;33.80;35.20;;;;;;5076045;28;20175;-69
2023/09/10 08:52:43;;;;;;;8.95;5.70;;;33.80;35.40;;;;;;5075944;28;20021;-69
2023/09/10 08:55:13;;;;;;;7.35;5.90;;;33.80;34.80;;;;;;5058108;28;20043;-69
2023/09/10 08:57:44;;;;;;;7.57;5.45;;;33.70;34.70;;;;;;5075518;28;20016;-69
2023/09/10 09:00:14;;;;;;;6.55;5.25;;;33.50;35.00;;;;;;5075670;28;20021;-69
2023/09/10 09:02:42;;;;;;;7.80;5.78;;;33.40;35.40;;;;;;5075918;28;20438;-69
2023/09/10 09:05:09;;;;;;;7.65;5.50;;;33.30;35.30;;;;;;5058018;28;20083;-69
2023/09/10 09:07:45;;;;;;;6.90;5.40;;;33.10;35.50;;;;;;5057838;28;20095;-69
2023/09/10 09:10:18;;;;;;;11.00;5.93;;;33.00;35.30;;;;;;5058973;28;20036;-69
2023/09/10 09:12:46;;;;;;;9.25;6.10;;;33.00;35.60;;;;;;5075860;28;20020;-69
2023/09/10 09:15:12;;;;;;;7.88;6.10;;;32.90;35.70;;;;;;5041435;28;20123;-69
2023/09/10 09:17:39;;;;;;;8.05;5.80;;;32.90;36.30;;;;;;5075520;28;20088;-69
2023/09/10 09:20:11;;;;;;;8.60;6.07;;;32.80;36.20;;;;;;5075413;28;20047;-69
2023/09/10 09:22:45;;;;;;;9.20;6.32;;;32.70;36.20;;;;;;5075718;28;20027;-69
2023/09/10 09:25:11;;;;;;;7.30;5.82;;;32.70;36.50;;;;;;5057650;28;20032;-69
2023/09/10 09:27:38;;;;;;;8.50;6.13;;;32.60;36.70;;;;;;5057568;28;20021;-69
2023/09/10 09:30:06;;;;;;;9.45;5.32;;;32.60;36.60;;;;;;5075608;28;20052;-69
2023/09/10 09:32:37;;;;;;;7.90;5.57;;;32.60;36.50;;;;;;5075824;28;20358;-69
2023/09/10 09:35:04;;;;;;;7.72;5.60;;;32.60;36.30;;;;;;5058062;28;20033;-69
2023/09/10 09:37:32;;;;;;;7.85;5.88;;;32.60;36.60;;;;;;5075128;28;20394;-69
2023/09/10 09:40:00;;;;;;;9.45;5.78;;;32.60;36.50;;;;;;5057671;28;20431;-69
2023/09/10 09:42:26;;;;;;;7.45;6.03;;;32.60;36.90;;;;;;5075404;28;20090;-69
2023/09/10 09:44:54;;;;;;;7.90;6.05;;;32.60;36.80;;;;;;5075136;28;20076;-69
2023/09/10 09:47:20;;;;;;;7.93;5.43;;;32.70;36.90;;;;;;5075325;28;20024;-69
2023/09/10 09:49:50;;;;;;;8.13;5.60;;;32.70;36.70;;;;;;5075391;28;20040;-69
2023/09/10 09:52:18;;;;;;;7.43;5.95;;;32.70;36.70;;;;;;5075220;28;20135;-69
2023/09/10 09:54:48;;;;;;;8.20;5.93;;;32.70;36.70;;;;;;5075003;28;20122;-68
2023/09/10 09:57:15;;;;;;;6.78;5.65;;;32.50;36.70;;;;;;5057284;28;20099;-69
2023/09/10 09:59:41;;;;;;;7.55;5.32;;;32.40;36.60;;;;;;5077384;28;20029;-69
2023/09/10 10:02:17;;;;;;;10.10;6.22;;;32.40;36.70;;;;;;5079231;28;20024;-69
2023/09/10 10:04:44;;;;;;;8.55;6.25;;;32.40;36.60;;;;;;5079008;28;20025;-68
2023/09/10 10:07:12;;;;;;;7.57;5.50;;;32.40;36.60;;;;;;5061268;28;20130;-69
2023/09/10 10:09:40;;;;;;;9.57;5.70;;;32.40;36.60;;;;;;5057710;28;20045;-69
2023/09/10 10:12:07;;;;;;;6.65;5.65;;;32.40;37.00;;;;;;5058027;28;20111;-69
2023/09/10 10:14:34;;;;;;;7.22;5.80;;;32.40;36.60;;;;;;5059092;28;20029;-69
2023/09/10 10:17:09;;;;;;;8.45;5.75;;;32.40;36.50;;;;;;5058767;28;20029;-69
2023/09/10 10:22:04;;;;;;;9.27;5.78;;;32.20;36.50;;;;;;5059540;28;20053;-69
2023/09/10 10:24:32;;;;;;;8.93;5.75;;;32.20;36.50;;;;;;5057688;28;20108;-69
2023/09/10 10:27:00;;;;;;;9.35;6.90;;;32.00;35.90;;;;;;5058479;28;20067;-69
2023/09/10 10:29:27;;;;;;;7.53;5.85;;;31.90;36.30;;;;;;5057556;28;20024;-69
2023/09/10 10:32:12;;;;;;;7.75;6.00;;;31.90;36.60;;;;;;5058781;28;20088;-69
2023/09/10 10:34:46;;;;;;;10.93;6.05;;;31.90;36.10;;;;;;5057434;28;20083;-69
2023/09/10 10:37:27;;;;;;;8.38;6.18;;;32.00;36.30;;;;;;5058570;28;20033;-69
2023/09/10 10:40:19;;;;;;;8.40;5.95;;;31.70;35.70;;;;;;5057352;28;20052;-69
2023/09/10 10:42:59;;;;;;;9.60;5.90;;;31.50;36.10;;;;;;5058574;28;20033;-69
2023/09/10 10:45:26;;;;;;;8.73;5.78;;;31.50;36.60;;;;;;5058784;28;20083;-69
2023/09/10 10:47:53;;;;;;;8.15;6.03;;;31.50;36.60;;;;;;5057507;28;20056;-69
2023/09/10 10:50:26;;;;;;;9.95;8.45;;;31.50;36.90;;;;;;5058564;28;20037;-69
2023/09/10 10:53:09;;;;;;;7.78;5.65;;;31.60;36.90;;;;;;5058042;28;20036;-69
2023/09/10 10:55:37;;;;;;;8.13;5.50;;;31.70;36.50;;;;;;5058207;28;20021;-69
2023/09/10 10:58:03;;;;;;;9.15;5.68;;;31.70;36.60;;;;;;5056927;28;20025;-69
2023/09/10 11:00:30;;;;;;;8.48;6.30;;;31.80;36.60;;;;;;5057051;28;20354;-69
2023/09/10 11:03:09;;;;;;;11.43;5.40;;;31.90;36.70;;;;;;5057859;28;20044;-69
2023/09/10 11:05:54;;;;;;;7.47;5.35;;;31.90;36.20;;;;;;5056805;28;20425;-69
2023/09/10 11:08:26;;;;;;;7.95;5.40;;;31.90;36.70;;;;;;5064724;28;20045;-70
2023/09/10 11:10:53;;;;;;;8.15;6.10;;;31.90;36.60;;;;;;5076770;28;20028;-69
2023/09/10 11:13:19;;;;;;;7.13;5.25;;;32.00;37.00;;;;;;5077910;28;20025;-68
2023/09/10 11:16:03;;;;;;;7.95;5.50;;;32.00;36.90;;;;;;5077565;28;20039;-69
2023/09/10 11:18:35;;;;;;;8.10;5.50;;;32.10;36.90;;;;;;5077987;28;20028;-69
2023/09/10 11:21:07;;;;;;;8.23;5.37;;;32.20;36.30;;;;;;5078074;28;20025;-68
2023/09/10 11:23:34;;;;;;;7.35;5.40;;;32.10;36.20;;;;;;5077404;28;20021;-68
2023/09/10 11:26:15;;;;;;;7.90;5.20;;;32.00;35.30;;;;;;5077340;28;20036;-69
2023/09/10 11:28:57;;;;;;;6.60;5.45;;;31.90;35.60;;;;;;5059629;28;20090;-69
2023/09/10 11:31:38;;;;;;;8.25;5.88;;;31.90;36.00;;;;;;5059707;28;20028;-69
2023/09/10 11:34:23;;;;;;;7.47;5.22;;;31.90;35.90;;;;;;5077715;28;20052;-69
2023/09/10 11:37:04;;;;;;;8.18;5.90;;;31.80;36.40;;;;;;5077128;28;20033;-69
2023/09/10 11:39:32;;;;;;;9.63;5.90;;;31.70;36.40;;;;;;5077094;28;20150;-68
2023/09/10 11:42:13;;;;;;;8.65;5.40;;;31.50;36.00;;;;;;5077395;28;20035;-69
2023/09/10 11:44:39;;;;;;;8.07;5.97;;;31.50;36.40;;;;;;5077026;28;20426;-69
2023/09/10 11:47:15;;;;;;;8.98;5.72;;;31.50;36.60;;;;;;5076937;28;20512;-69
2023/09/10 11:50:01;;;;;;;6.55;5.43;;;31.70;36.40;;;;;;5077315;28;20036;-69
2023/09/10 11:52:28;;;;;;;6.53;5.22;;;31.80;36.50;;;;;;5077472;28;20048;-69
2023/09/10 11:54:54;;;;;;;9.70;6.18;;;31.90;36.70;;;;;;5059305;28;20488;-69
2023/09/10 11:57:21;;;;;;;7.13;5.55;;;31.90;36.50;;;;;;5059120;28;20162;-69
2023/09/10 11:59:51;;;;;;;7.80;5.45;;;31.90;36.50;;;;;;5059065;28;20047;-69
2023/09/10 12:02:21;;;;;;;9.57;5.65;;;31.90;36.60;;;;;;5059154;28;20458;-69
2023/09/10 12:04:47;;;;;;;7.15;5.43;;;31.90;36.80;;;;;;5059495;28;20024;-68
2023/09/10 12:07:13;;;;;;;9.98;6.00;;;31.90;37.10;;;;;;5076780;28;20044;-69
2023/09/10 12:09:39;;;;;;;7.47;5.38;;;32.00;37.30;;;;;;5076298;28;20052;-69
2023/09/10 12:12:17;;;;;;;8.35;6.05;;;32.00;37.30;;;;;;5076509;28;20047;-69
2023/09/10 12:14:43;;;;;;;7.65;5.78;;;32.00;37.90;;;;;;5059608;28;20525;-69
2023/09/10 12:17:10;;;;;;;11.02;6.15;;;32.10;37.20;;;;;;5076365;28;20114;-69
2023/09/10 12:19:37;;;;;;;6.93;5.50;;;32.00;36.90;;;;;;5058981;28;20033;-69
2023/09/10 12:22:09;;;;;;;7.05;5.80;;;32.00;37.30;;;;;;5076240;28;20021;-69
2023/09/10 12:24:37;;;;;;;;;;;32.00;37.50;;;;;;5076603;28;20047;-68
2023/09/10 12:27:04;;;;;;;6.10;5.03;;;32.10;37.40;;;;;;5058616;28;19905;-69
2023/09/10 12:29:30;;;;;;;9.43;6.20;;;32.20;37.60;;;;;;5058530;28;20438;-69
2023/09/10 12:31:57;;;;;;;7.32;5.63;;;32.20;37.50;;;;;;5076048;28;20039;-68
2023/09/10 12:34:30;;;;;;;7.82;5.45;;;32.20;37.30;;;;;;5075943;28;20065;-68
2023/09/10 12:37:02;;;;;;;7.45;5.82;;;32.20;37.60;;;;;;5076434;28;20025;-69
2023/09/10 12:39:31;;;;;;;8.05;5.57;;;32.30;37.70;;;;;;5075908;28;20514;-69
2023/09/10 12:42:03;;;;;;;7.90;6.03;;;32.20;37.70;;;;;;5075913;28;20027;-69
2023/09/10 12:44:30;;;;;;;8.40;6.18;;;32.20;37.50;;;;;;5076295;28;20037;-69
2023/09/10 12:46:58;;;;;;;8.23;5.97;;;32.10;38.10;;;;;;5075616;28;20029;-69
2023/09/10 12:49:30;;;;;;;6.45;5.60;;;32.10;38.30;;;;;;5058100;28;20476;-68
2023/09/10 12:51:56;;;;;;;9.02;5.93;;;32.10;37.90;;;;;;5075657;28;20378;-69
2023/09/10 12:54:23;;;;;;;7.60;5.97;;;32.00;38.00;;;;;;5075845;28;20033;-69
2023/09/10 12:56:51;;;;;;;9.07;5.57;;;32.00;37.70;;;;;;5075813;28;20025;-69
2023/09/10 12:59:20;;;;;;;7.00;5.20;;;32.10;38.10;;;;;;5075813;28;20370;-68